createdAt,value
2018-07-04T00:01:34.449Z,0.40
2018-07-04T00:04:48.758Z,0.53
2018-07-04T00:08:06.692Z,0.50
2018-07-04T00:11:22.156Z,0.43
2018-07-04T00:14:42.110Z,0.50
2018-07-04T00:17:56.455Z,0.47
2018-07-04T00:21:10.724Z,0.37
2018-07-04T00:24:26.980Z,0.40
2018-07-04T00:27:41.182Z,0.30
2018-07-04T00:31:01.342Z,0.60
2018-07-04T00:34:21.393Z,0.43
2018-07-04T00:37:36.784Z,0.40
2018-07-04T00:40:52.207Z,0.40
2018-07-04T00:44:07.647Z,0.50
2018-07-04T00:47:21.832Z,0.50
2018-07-04T00:50:38.254Z,0.40
2018-07-04T00:53:52.614Z,0.40
2018-07-04T00:57:12.894Z,0.30
2018-07-04T01:00:27.211Z,0.40
2018-07-04T01:03:41.605Z,0.40
2018-07-04T01:06:55.893Z,0.63
2018-07-04T01:10:10.345Z,0.40
2018-07-04T01:13:25.666Z,0.50
2018-07-04T01:16:40.027Z,0.40
2018-07-04T01:19:56.343Z,0.50
2018-07-04T01:23:11.670Z,0.60
2018-07-04T01:26:27.097Z,0.30
2018-07-04T01:29:42.348Z,0.40
2018-07-04T01:32:57.726Z,0.47
2018-07-04T01:36:17.910Z,0.50
2018-07-04T01:39:32.057Z,0.50
2018-07-04T01:42:46.422Z,0.50
2018-07-04T01:46:00.809Z,0.40
2018-07-04T01:49:17.077Z,0.47
2018-07-04T01:52:31.474Z,0.50
2018-07-04T01:55:46.675Z,0.50
2018-07-04T01:59:04.291Z,0.40
2018-07-04T02:02:18.597Z,0.40
2018-07-04T02:05:34.980Z,0.60
2018-07-04T02:08:51.266Z,0.60
2018-07-04T02:12:05.484Z,0.40
2018-07-04T02:15:21.814Z,0.50
2018-07-04T02:18:41.111Z,0.43
2018-07-04T02:22:02.249Z,0.47
2018-07-04T02:25:17.653Z,0.53
2018-07-04T02:28:33.926Z,0.47
2018-07-04T02:31:48.254Z,0.63
2018-07-04T02:35:07.568Z,0.40
2018-07-04T02:38:22.868Z,0.60
2018-07-04T02:41:37.179Z,0.60
2018-07-04T02:44:51.523Z,0.53
2018-07-04T02:48:12.676Z,0.40
2018-07-04T02:51:27.914Z,0.60
2018-07-04T02:54:42.205Z,0.50
2018-07-04T02:57:56.693Z,0.50
2018-07-04T03:01:12.752Z,0.60
2018-07-04T03:04:28.060Z,0.47
2018-07-04T03:07:43.466Z,0.50
2018-07-04T03:11:03.656Z,0.60
2018-07-04T03:14:20.043Z,0.80
2018-07-04T03:17:35.353Z,0.77
2018-07-04T03:20:50.749Z,0.67
2018-07-04T03:24:06.976Z,0.80
2018-07-04T03:27:21.329Z,0.80
2018-07-04T03:30:39.558Z,0.70
2018-07-04T03:33:53.937Z,0.60
2018-07-04T03:37:09.246Z,0.40
2018-07-04T03:40:23.567Z,0.60
2018-07-04T03:43:38.794Z,0.70
2018-07-04T03:46:53.050Z,0.50
2018-07-04T03:50:13.207Z,0.60
2018-07-04T03:53:27.366Z,0.60
2018-07-04T03:56:43.609Z,0.93
2018-07-04T04:00:03.661Z,0.60
2018-07-04T04:03:22.973Z,0.50
2018-07-04T04:06:37.423Z,0.63
2018-07-04T04:09:52.887Z,0.50
2018-07-04T04:13:07.122Z,0.53
2018-07-04T04:16:22.433Z,0.60
2018-07-04T04:19:37.698Z,0.70
2018-07-04T04:22:51.885Z,0.40
2018-07-04T04:26:06.297Z,0.53
2018-07-04T04:29:20.500Z,0.50
2018-07-04T04:32:37.917Z,0.60
2018-07-04T04:35:55.409Z,1.10
2018-07-04T04:39:09.764Z,0.73
2018-07-04T04:42:24.106Z,0.73
2018-07-04T04:45:43.393Z,0.70
2018-07-04T04:48:58.688Z,0.83
2018-07-04T04:52:14.532Z,0.90
2018-07-04T04:55:28.805Z,0.73
2018-07-04T04:58:42.979Z,0.80
2018-07-04T05:02:06.374Z,0.80
2018-07-04T05:05:20.685Z,0.70
2018-07-04T05:08:34.836Z,0.77
2018-07-04T05:11:50.037Z,0.70
2018-07-04T05:15:05.253Z,0.67
2018-07-04T05:18:19.444Z,0.70
2018-07-04T05:21:34.717Z,0.80
2018-07-04T05:24:53.921Z,0.70
2018-07-04T05:28:09.319Z,0.80
2018-07-04T05:31:24.715Z,0.70
2018-07-04T05:34:45.768Z,0.80
2018-07-04T05:38:02.158Z,0.80
2018-07-04T05:41:16.381Z,0.93
2018-07-04T05:44:31.671Z,1.00
2018-07-04T05:47:45.909Z,0.77
2018-07-04T05:51:01.231Z,1.00
2018-07-04T05:54:21.221Z,0.90
2018-07-04T05:57:37.391Z,0.80
2018-07-04T06:00:55.625Z,0.80
2018-07-04T06:04:18.866Z,1.00
2018-07-04T06:07:37.383Z,0.90
2018-07-04T06:10:51.664Z,1.13
2018-07-04T06:14:07.929Z,0.90
2018-07-04T06:17:22.721Z,0.80
2018-07-04T06:20:36.922Z,0.70
2018-07-04T06:23:55.008Z,0.57
2018-07-04T06:27:09.197Z,0.80
2018-07-04T06:30:24.641Z,1.47
2018-07-04T06:33:39.877Z,1.07
2018-07-04T06:36:56.259Z,0.57
2018-07-04T06:39:58.249Z,0.70
2018-07-04T06:43:01.261Z,0.83
2018-07-04T06:46:05.240Z,0.57
2018-07-04T06:49:13.081Z,0.67
2018-07-04T06:52:15.669Z,0.80
2018-07-04T06:55:29.045Z,0.80
2018-07-04T06:58:33.079Z,0.77
2018-07-04T07:01:34.842Z,1.00
2018-07-04T07:04:51.176Z,1.00
2018-07-04T07:08:05.481Z,1.00
2018-07-04T07:11:27.639Z,1.00
2018-07-04T07:14:41.853Z,1.00
2018-07-04T07:17:55.897Z,1.10
2018-07-04T07:21:17.115Z,1.23
2018-07-04T07:24:37.042Z,1.20
2018-07-04T07:27:58.986Z,1.23
2018-07-04T07:31:21.059Z,1.00
2018-07-04T07:34:35.400Z,1.10
2018-07-04T07:37:52.885Z,1.03
2018-07-04T07:41:13.707Z,0.93
2018-07-04T07:44:30.018Z,1.00
2018-07-04T07:47:45.434Z,1.17
2018-07-04T07:51:06.609Z,0.90
2018-07-04T07:54:20.868Z,1.10
2018-07-04T07:57:36.150Z,1.23
2018-07-04T08:00:57.116Z,0.90
2018-07-04T08:04:17.071Z,0.90
2018-07-04T08:07:33.370Z,0.90
2018-07-04T08:10:47.552Z,1.10
2018-07-04T08:14:01.952Z,0.90
2018-07-04T08:17:23.889Z,1.30
2018-07-04T08:20:38.167Z,1.20
2018-07-04T08:23:58.281Z,1.00
2018-07-04T08:27:17.654Z,1.03
2018-07-04T08:30:38.618Z,2.37
2018-07-04T08:33:58.587Z,0.90
2018-07-04T08:37:14.520Z,0.80
2018-07-04T08:40:38.662Z,0.83
2018-07-04T08:43:53.026Z,0.90
2018-07-04T08:47:07.320Z,0.70
2018-07-04T08:50:27.315Z,1.07
2018-07-04T08:53:48.547Z,0.90
2018-07-04T08:57:02.784Z,1.00
2018-07-04T09:00:23.878Z,0.97
2018-07-04T09:03:38.250Z,0.97
2018-07-04T09:06:56.986Z,1.00
2018-07-04T09:10:18.178Z,1.30
2018-07-04T09:13:32.397Z,0.93
2018-07-04T09:16:47.775Z,1.10
2018-07-04T09:20:08.846Z,1.00
2018-07-04T09:23:24.165Z,1.13
2018-07-04T09:26:45.343Z,0.77
2018-07-04T09:29:59.546Z,0.90
2018-07-04T09:33:14.800Z,0.90
2018-07-04T09:36:34.790Z,0.90
2018-07-04T09:39:50.130Z,1.10
2018-07-04T09:43:12.134Z,0.90
2018-07-04T09:46:32.298Z,0.97
2018-07-04T09:49:47.680Z,1.13
2018-07-04T09:53:08.566Z,1.00
2018-07-04T09:56:22.733Z,1.10
2018-07-04T09:59:38.006Z,0.80
2018-07-04T10:02:53.357Z,0.80
2018-07-04T10:06:08.764Z,0.90
2018-07-04T10:09:24.143Z,0.90
2018-07-04T10:12:38.566Z,1.00
2018-07-04T10:15:52.871Z,1.27
2018-07-04T10:19:07.229Z,1.13
2018-07-04T10:22:28.336Z,1.10
2018-07-04T10:25:48.352Z,1.23
2018-07-04T10:29:06.586Z,1.10
2018-07-04T10:32:26.670Z,1.20
2018-07-04T10:35:40.852Z,1.10
2018-07-04T10:39:07.273Z,1.10
2018-07-04T10:42:22.499Z,1.10
2018-07-04T10:45:36.794Z,1.37
2018-07-04T10:48:52.080Z,1.10
2018-07-04T10:52:06.349Z,1.50
2018-07-04T10:55:20.608Z,1.57
2018-07-04T10:58:41.647Z,1.50
2018-07-04T11:02:01.753Z,1.63
2018-07-04T11:05:16.174Z,1.80
2018-07-04T11:08:30.428Z,1.60
2018-07-04T11:11:55.060Z,1.67
2018-07-04T11:15:09.397Z,1.90
2018-07-04T11:18:24.848Z,1.40
2018-07-04T11:21:40.256Z,1.80
2018-07-04T11:24:56.537Z,1.60
2018-07-04T11:28:11.849Z,1.60
2018-07-04T11:31:26.070Z,1.83
2018-07-04T11:34:41.458Z,1.40
2018-07-04T11:37:55.662Z,1.30
2018-07-04T11:41:11.103Z,1.20
2018-07-04T11:44:26.496Z,1.10
2018-07-04T11:47:29.506Z,1.13
2018-07-04T11:50:31.056Z,1.40
2018-07-04T11:53:41.010Z,1.40
2018-07-04T11:56:44.185Z,1.70
2018-07-04T11:59:47.109Z,1.50
2018-07-04T12:02:51.160Z,1.47
2018-07-04T12:06:17.065Z,1.57
2018-07-04T12:09:21.035Z,1.60
2018-07-04T12:12:22.966Z,1.50
2018-07-04T12:15:26.018Z,1.57
2018-07-04T12:18:28.067Z,2.20
2018-07-04T12:21:31.095Z,1.30
2018-07-04T12:24:33.025Z,1.60
2018-07-04T12:27:36.034Z,1.40
2018-07-04T12:30:37.530Z,1.27
2018-07-04T12:33:40.071Z,1.03
2018-07-04T12:36:42.561Z,1.20
2018-07-04T12:39:49.408Z,1.40
2018-07-04T12:42:52.412Z,1.43
2018-07-04T12:45:55.382Z,1.27
2018-07-04T12:49:00.165Z,1.63
2018-07-04T12:52:02.177Z,1.90
2018-07-04T12:55:17.352Z,2.00
2018-07-04T12:58:32.627Z,1.70
2018-07-04T13:01:46.912Z,1.67
2018-07-04T13:05:02.190Z,1.63
2018-07-04T13:08:16.417Z,1.83
2018-07-04T13:11:31.714Z,2.00
2018-07-04T13:14:50.319Z,1.90
2018-07-04T13:18:05.735Z,1.93
2018-07-04T13:21:24.613Z,1.67
2018-07-04T13:24:38.897Z,2.20
2018-07-04T13:27:55.151Z,1.87
2018-07-04T13:31:09.314Z,1.93
2018-07-04T13:34:24.540Z,2.27
2018-07-04T13:37:39.874Z,2.40
2018-07-04T13:40:55.320Z,2.43
2018-07-04T13:44:15.781Z,2.03
2018-07-04T13:47:31.066Z,1.90
2018-07-04T13:50:51.135Z,2.00
2018-07-04T13:54:07.444Z,2.10
2018-07-04T13:57:22.869Z,2.00
2018-07-04T14:00:37.211Z,2.60
2018-07-04T14:03:51.634Z,2.70
2018-07-04T14:07:11.656Z,2.80
2018-07-04T14:10:29.300Z,3.13
2018-07-04T14:13:43.653Z,3.40
2018-07-04T14:17:04.741Z,2.53
2018-07-04T14:20:19.127Z,2.90
2018-07-04T14:23:33.605Z,3.33
2018-07-04T14:26:47.789Z,3.13
2018-07-04T14:30:01.977Z,3.13
2018-07-04T14:33:17.166Z,3.43
2018-07-04T14:36:33.655Z,3.10
2018-07-04T14:39:49.038Z,3.40
2018-07-04T14:43:04.309Z,3.47
2018-07-04T14:46:19.610Z,3.50
2018-07-04T14:49:33.922Z,2.97
2018-07-04T14:52:49.794Z,2.97
2018-07-04T14:56:08.695Z,2.80
2018-07-04T14:59:23.978Z,2.77
2018-07-04T15:02:43.979Z,2.83
2018-07-04T15:05:59.129Z,3.03
2018-07-04T15:09:14.337Z,3.00
2018-07-04T15:12:29.581Z,3.03
2018-07-04T15:15:43.911Z,3.20
2018-07-04T15:19:03.362Z,3.17
2018-07-04T15:22:22.371Z,2.87
2018-07-04T15:25:38.636Z,3.20
2018-07-04T15:28:53.858Z,2.97
2018-07-04T15:32:08.130Z,3.87
2018-07-04T15:35:27.318Z,3.17
2018-07-04T15:38:42.870Z,3.00
2018-07-04T15:42:03.587Z,2.90
2018-07-04T15:45:22.313Z,3.30
2018-07-04T15:48:36.551Z,3.20
2018-07-04T15:51:50.829Z,3.03
2018-07-04T15:55:05.179Z,2.77
2018-07-04T15:58:23.069Z,3.07
2018-07-04T16:01:38.543Z,2.87
2018-07-04T16:04:56.372Z,1.30
2018-07-04T16:08:10.528Z,1.03
2018-07-04T16:11:36.011Z,1.00
2018-07-04T16:14:52.326Z,0.80
2018-07-04T16:18:08.499Z,0.80
2018-07-04T16:21:36.690Z,0.90
2018-07-04T16:24:57.157Z,0.80
2018-07-04T16:28:22.142Z,0.93
2018-07-04T16:31:36.375Z,1.10
2018-07-04T16:34:51.564Z,1.00
2018-07-04T16:38:06.745Z,0.70
2018-07-04T16:41:28.718Z,0.90
2018-07-04T16:44:43.973Z,0.70
2018-07-04T16:47:58.479Z,0.90
2018-07-04T16:51:13.888Z,0.80
2018-07-04T16:54:28.254Z,0.90
2018-07-04T16:57:47.365Z,1.00
2018-07-04T17:01:12.914Z,1.30
2018-07-04T17:04:27.321Z,1.27
2018-07-04T17:07:48.395Z,1.10
2018-07-04T17:11:04.679Z,1.07
2018-07-04T17:14:18.975Z,0.90
2018-07-04T17:17:39.054Z,1.20
2018-07-04T17:20:55.287Z,1.13
2018-07-04T17:24:12.109Z,1.77
2018-07-04T17:27:33.290Z,1.67
2018-07-04T17:30:49.674Z,2.23
2018-07-04T17:34:03.985Z,2.40
2018-07-04T17:37:26.123Z,2.17
2018-07-04T17:40:42.554Z,2.20
2018-07-04T17:43:57.832Z,2.27
2018-07-04T17:47:17.249Z,2.13
2018-07-04T17:50:31.487Z,2.00
2018-07-04T17:53:47.144Z,1.80
2018-07-04T17:57:09.262Z,2.43
2018-07-04T18:00:23.486Z,2.13
2018-07-04T18:03:42.673Z,2.03
2018-07-04T18:06:59.005Z,2.00
2018-07-04T18:10:13.271Z,2.20
2018-07-04T18:13:28.469Z,2.20
2018-07-04T18:16:43.707Z,2.37
2018-07-04T18:19:58.945Z,2.23
2018-07-04T18:23:13.149Z,1.77
2018-07-04T18:26:28.309Z,2.30
2018-07-04T18:29:42.749Z,2.20
2018-07-04T18:32:56.969Z,2.00
2018-07-04T18:36:17.926Z,2.27
2018-07-04T18:39:33.161Z,2.27
2018-07-04T18:42:47.474Z,2.63
2018-07-04T18:46:07.348Z,2.60
2018-07-04T18:49:22.106Z,2.03
2018-07-04T18:52:36.337Z,2.70
2018-07-04T18:55:58.059Z,2.20
2018-07-04T18:59:12.353Z,2.10
2018-07-04T19:02:31.094Z,1.83
2018-07-04T19:05:45.287Z,2.13
2018-07-04T19:09:00.688Z,2.40
2018-07-04T19:12:22.870Z,3.70
2018-07-04T19:15:46.479Z,2.27
2018-07-04T19:19:08.597Z,2.37
2018-07-04T19:22:28.742Z,3.70
2018-07-04T19:25:45.078Z,3.13
2018-07-04T19:29:05.210Z,2.70
2018-07-04T19:35:49.624Z,1.90
2018-07-04T19:39:05.838Z,2.03
2018-07-04T19:42:29.910Z,3.00
2018-07-04T19:45:49.342Z,2.57
2018-07-04T19:49:03.861Z,2.57
2018-07-04T19:52:22.532Z,3.30
2018-07-04T19:55:36.883Z,2.90
2018-07-04T19:58:54.422Z,3.30
2018-07-04T20:02:14.290Z,2.73
2018-07-04T20:05:37.811Z,2.80
2018-07-04T20:08:52.075Z,2.80
2018-07-04T20:12:06.465Z,2.70
2018-07-04T20:15:21.420Z,2.73
2018-07-04T20:18:36.752Z,2.60
2018-07-04T20:21:51.041Z,2.30
2018-07-04T20:25:05.186Z,2.70
2018-07-04T20:28:27.802Z,3.07
2018-07-04T20:31:44.158Z,2.90
2018-07-04T20:34:59.633Z,3.13
2018-07-04T20:38:13.801Z,3.20
2018-07-04T20:41:28.211Z,3.33
2018-07-04T20:44:43.442Z,3.10
2018-07-04T20:48:03.540Z,2.80
2018-07-04T20:51:19.030Z,3.20
2018-07-04T21:01:31.930Z,3.77
2018-07-04T21:04:53.006Z,3.40
2018-07-04T21:08:12.114Z,4.07
2018-07-04T21:11:29.536Z,3.57
2018-07-04T21:14:43.827Z,3.93
2018-07-04T21:17:59.154Z,3.40
2018-07-04T21:21:14.503Z,2.93
2018-07-04T21:24:37.122Z,2.60
2018-07-04T21:27:52.811Z,3.40
2018-07-04T21:31:09.801Z,3.33
2018-07-04T21:34:24.246Z,3.47
2018-07-04T21:37:38.951Z,3.30
2018-07-04T21:41:07.194Z,3.10
2018-07-04T21:44:22.750Z,3.40
2018-07-04T21:47:44.362Z,3.33
2018-07-04T21:51:00.197Z,3.43
2018-07-04T21:54:14.862Z,3.20
2018-07-04T21:57:29.487Z,3.40
2018-07-04T22:00:43.859Z,3.67
2018-07-04T22:04:04.519Z,2.87
2018-07-04T22:07:19.963Z,2.50
2018-07-04T22:10:35.038Z,3.30
2018-07-04T22:13:55.451Z,2.93
2018-07-04T22:17:10.274Z,2.93
2018-07-04T22:20:30.914Z,2.90
2018-07-04T22:23:47.420Z,2.43
2018-07-04T22:27:01.735Z,2.90
2018-07-04T22:30:16.384Z,2.73
2018-07-04T22:33:35.457Z,2.80
2018-07-04T22:36:55.083Z,3.13
2018-07-04T22:40:12.676Z,1.90
2018-07-04T22:43:27.208Z,2.13
2018-07-04T22:46:46.219Z,1.90
2018-07-04T22:50:00.908Z,2.00
2018-07-04T22:53:17.638Z,2.60
2018-07-04T22:56:32.179Z,2.47
2018-07-04T22:59:46.599Z,2.30
2018-07-04T23:03:01.798Z,1.93
2018-07-04T23:06:16.746Z,2.40
2018-07-04T23:09:31.050Z,2.53
2018-07-04T23:12:53.225Z,2.60
2018-07-04T23:16:13.143Z,2.97
2018-07-04T23:19:31.469Z,2.70
2018-07-04T23:22:45.882Z,3.27
2018-07-04T23:26:02.659Z,2.47
2018-07-04T23:29:17.922Z,3.00
2018-07-04T23:32:32.581Z,2.73
2018-07-04T23:35:54.074Z,3.80
2018-07-04T23:39:08.589Z,3.23
2018-07-04T23:42:22.795Z,2.70
2018-07-04T23:45:39.855Z,2.03
2018-07-04T23:48:57.894Z,2.53
2018-07-04T23:52:13.667Z,2.70
2018-07-04T23:55:29.977Z,2.70
2018-07-04T23:58:44.286Z,2.87
